sensor_id;sensor_type;location;lat;lon;timestamp;P1;durP1;ratioP1;P2;durP2;ratioP2
9436;SDS011;4757;59.334;18.034;2023-05-16T00:01:31;8.63;;;5.63;;
9436;SDS011;4757;59.334;18.034;2023-05-16T00:04:00;6.83;;;5.20;;
9436;SDS011;4757;59.334;18.034;2023-05-16T00:06:30;7.17;;;5.07;;
9436;SDS011;4757;59.334;18.034;2023-05-16T00:08:57;10.77;;;5.57;;
9436;SDS011;4757;59.334;18.034;2023-05-16T00:11:24;12.03;;;5.87;;
9436;SDS011;4757;59.334;18.034;2023-05-16T00:13:52;7.47;;;5.47;;
9436;SDS011;4757;59.334;18.034;2023-05-16T00:16:19;7.53;;;5.20;;
9436;SDS011;4757;59.334;18.034;2023-05-16T00:18:47;6.83;;;6.13;;
9436;SDS011;4757;59.334;18.034;2023-05-16T00:21:17;7.60;;;5.63;;
9436;SDS011;4757;59.334;18.034;2023-05-16T00:23:48;8.53;;;6.07;;
9436;SDS011;4757;59.334;18.034;2023-05-16T00:26:15;6.50;;;5.90;;
9436;SDS011;4757;59.334;18.034;2023-05-16T00:28:42;7.37;;;5.70;;
9436;SDS011;4757;59.334;18.034;2023-05-16T00:31:09;6.73;;;5.80;;
9436;SDS011;4757;59.334;18.034;2023-05-16T00:33:36;12.30;;;7.00;;
9436;SDS011;4757;59.334;18.034;2023-05-16T00:36:03;6.60;;;5.40;;
9436;SDS011;4757;59.334;18.034;2023-05-16T00:38:30;7.57;;;5.97;;
9436;SDS011;4757;59.334;18.034;2023-05-16T00:40:59;6.53;;;4.83;;
9436;SDS011;4757;59.334;18.034;2023-05-16T00:43:26;8.00;;;5.60;;
9436;SDS011;4757;59.334;18.034;2023-05-16T00:45:53;8.87;;;6.27;;
9436;SDS011;4757;59.334;18.034;2023-05-16T00:48:20;5.90;;;5.37;;
9436;SDS011;4757;59.334;18.034;2023-05-16T00:50:47;7.60;;;6.17;;
9436;SDS011;4757;59.334;18.034;2023-05-16T00:53:14;6.30;;;5.70;;
9436;SDS011;4757;59.334;18.034;2023-05-16T00:55:42;10.10;;;6.33;;
9436;SDS011;4757;59.334;18.034;2023-05-16T00:58:09;7.40;;;5.67;;
9436;SDS011;4757;59.334;18.034;2023-05-16T01:00:37;20.20;;;7.70;;
9436;SDS011;4757;59.334;18.034;2023-05-16T01:03:04;5.40;;;4.90;;
9436;SDS011;4757;59.334;18.034;2023-05-16T01:05:31;7.47;;;5.20;;
9436;SDS011;4757;59.334;18.034;2023-05-16T01:07:59;6.17;;;5.37;;
9436;SDS011;4757;59.334;18.034;2023-05-16T01:10:26;11.40;;;5.63;;
9436;SDS011;4757;59.334;18.034;2023-05-16T01:13:10;9.43;;;5.90;;
9436;SDS011;4757;59.334;18.034;2023-05-16T01:15:46;6.57;;;5.03;;
9436;SDS011;4757;59.334;18.034;2023-05-16T01:18:24;5.77;;;5.27;;
9436;SDS011;4757;59.334;18.034;2023-05-16T01:20:55;5.70;;;5.13;;
9436;SDS011;4757;59.334;18.034;2023-05-16T01:26:22;6.37;;;5.10;;
9436;SDS011;4757;59.334;18.034;2023-05-16T01:28:52;9.87;;;5.87;;
9436;SDS011;4757;59.334;18.034;2023-05-16T01:31:20;6.67;;;6.07;;
9436;SDS011;4757;59.334;18.034;2023-05-16T01:33:48;5.80;;;5.20;;
9436;SDS011;4757;59.334;18.034;2023-05-16T01:47:01;11.07;;;5.80;;
9436;SDS011;4757;59.334;18.034;2023-05-16T01:49:44;5.97;;;5.00;;
9436;SDS011;4757;59.334;18.034;2023-05-16T01:52:37;6.13;;;5.10;;
9436;SDS011;4757;59.334;18.034;2023-05-16T01:55:13;5.40;;;4.87;;
9436;SDS011;4757;59.334;18.034;2023-05-16T01:57:44;5.33;;;4.83;;
9436;SDS011;4757;59.334;18.034;2023-05-16T02:00:12;7.57;;;5.57;;
9436;SDS011;4757;59.334;18.034;2023-05-16T02:02:40;9.07;;;5.70;;
9436;SDS011;4757;59.334;18.034;2023-05-16T02:05:07;8.23;;;7.07;;
9436;SDS011;4757;59.334;18.034;2023-05-16T02:07:34;4.23;;;3.77;;
9436;SDS011;4757;59.334;18.034;2023-05-16T02:10:01;5.13;;;4.63;;
9436;SDS011;4757;59.334;18.034;2023-05-16T02:12:28;4.43;;;4.13;;
9436;SDS011;4757;59.334;18.034;2023-05-16T02:14:55;6.87;;;4.60;;
9436;SDS011;4757;59.334;18.034;2023-05-16T02:17:21;4.93;;;4.43;;
9436;SDS011;4757;59.334;18.034;2023-05-16T02:19:48;8.20;;;5.77;;
9436;SDS011;4757;59.334;18.034;2023-05-16T02:22:15;5.37;;;4.87;;
9436;SDS011;4757;59.334;18.034;2023-05-16T02:24:42;5.93;;;4.80;;
9436;SDS011;4757;59.334;18.034;2023-05-16T02:27:10;5.40;;;4.77;;
9436;SDS011;4757;59.334;18.034;2023-05-16T02:29:37;5.70;;;5.20;;
9436;SDS011;4757;59.334;18.034;2023-05-16T02:32:04;10.17;;;4.33;;
9436;SDS011;4757;59.334;18.034;2023-05-16T02:34:31;5.13;;;4.63;;
9436;SDS011;4757;59.334;18.034;2023-05-16T02:36:58;5.10;;;4.60;;
9436;SDS011;4757;59.334;18.034;2023-05-16T02:39:25;6.63;;;5.40;;
9436;SDS011;4757;59.334;18.034;2023-05-16T02:41:52;6.33;;;5.23;;
9436;SDS011;4757;59.334;18.034;2023-05-16T02:44:19;5.97;;;5.00;;
9436;SDS011;4757;59.334;18.034;2023-05-16T02:46:45;17.83;;;5.70;;
9436;SDS011;4757;59.334;18.034;2023-05-16T02:49:12;4.40;;;4.10;;
9436;SDS011;4757;59.334;18.034;2023-05-16T02:51:39;6.10;;;5.10;;
9436;SDS011;4757;59.334;18.034;2023-05-16T02:54:06;6.43;;;5.03;;
9436;SDS011;4757;59.334;18.034;2023-05-16T02:56:35;7.63;;;4.90;;
9436;SDS011;4757;59.334;18.034;2023-05-16T02:59:02;5.27;;;4.70;;
9436;SDS011;4757;59.334;18.034;2023-05-16T03:01:30;7.73;;;4.83;;
9436;SDS011;4757;59.334;18.034;2023-05-16T03:03:57;5.80;;;5.00;;
9436;SDS011;4757;59.334;18.034;2023-05-16T03:06:24;6.50;;;4.70;;
9436;SDS011;4757;59.334;18.034;2023-05-16T03:08:51;5.00;;;4.50;;
9436;SDS011;4757;59.334;18.034;2023-05-16T03:11:18;6.50;;;4.63;;
9436;SDS011;4757;59.334;18.034;2023-05-16T03:13:50;8.53;;;5.10;;
9436;SDS011;4757;59.334;18.034;2023-05-16T03:16:17;5.27;;;4.77;;
9436;SDS011;4757;59.334;18.034;2023-05-16T03:18:44;5.43;;;4.77;;
9436;SDS011;4757;59.334;18.034;2023-05-16T03:21:11;7.70;;;5.57;;
9436;SDS011;4757;59.334;18.034;2023-05-16T03:23:38;9.50;;;4.70;;
9436;SDS011;4757;59.334;18.034;2023-05-16T03:26:04;5.10;;;4.70;;
9436;SDS011;4757;59.334;18.034;2023-05-16T03:28:31;7.03;;;4.97;;
9436;SDS011;4757;59.334;18.034;2023-05-16T03:30:59;8.67;;;5.57;;
9436;SDS011;4757;59.334;18.034;2023-05-16T03:33:25;8.87;;;5.97;;
9436;SDS011;4757;59.334;18.034;2023-05-16T03:35:52;6.00;;;5.40;;
9436;SDS011;4757;59.334;18.034;2023-05-16T03:38:19;12.47;;;5.47;;
9436;SDS011;4757;59.334;18.034;2023-05-16T03:40:46;8.03;;;4.70;;
9436;SDS011;4757;59.334;18.034;2023-05-16T03:43:13;8.97;;;5.17;;
9436;SDS011;4757;59.334;18.034;2023-05-16T03:45:40;5.87;;;4.90;;
9436;SDS011;4757;59.334;18.034;2023-05-16T03:48:08;8.07;;;5.57;;
9436;SDS011;4757;59.334;18.034;2023-05-16T03:50:36;11.60;;;5.57;;
9436;SDS011;4757;59.334;18.034;2023-05-16T03:53:06;5.30;;;4.80;;
9436;SDS011;4757;59.334;18.034;2023-05-16T03:55:34;6.10;;;5.10;;
9436;SDS011;4757;59.334;18.034;2023-05-16T03:58:01;7.70;;;5.63;;
9436;SDS011;4757;59.334;18.034;2023-05-16T04:00:28;6.70;;;5.00;;
9436;SDS011;4757;59.334;18.034;2023-05-16T04:02:55;8.13;;;6.20;;
9436;SDS011;4757;59.334;18.034;2023-05-16T04:05:22;5.90;;;5.40;;
9436;SDS011;4757;59.334;18.034;2023-05-16T04:07:49;5.23;;;4.83;;
9436;SDS011;4757;59.334;18.034;2023-05-16T04:10:16;6.77;;;5.30;;
9436;SDS011;4757;59.334;18.034;2023-05-16T04:12:43;6.33;;;5.17;;
9436;SDS011;4757;59.334;18.034;2023-05-16T04:15:10;7.40;;;5.37;;
9436;SDS011;4757;59.334;18.034;2023-05-16T04:17:37;7.33;;;5.00;;
9436;SDS011;4757;59.334;18.034;2023-05-16T04:20:05;6.50;;;5.10;;
9436;SDS011;4757;59.334;18.034;2023-05-16T04:22:32;7.03;;;5.23;;
9436;SDS011;4757;59.334;18.034;2023-05-16T04:25:00;7.93;;;5.63;;
9436;SDS011;4757;59.334;18.034;2023-05-16T04:27:27;9.20;;;5.33;;
9436;SDS011;4757;59.334;18.034;2023-05-16T04:29:55;8.80;;;5.40;;
9436;SDS011;4757;59.334;18.034;2023-05-16T04:32:22;7.23;;;5.27;;
9436;SDS011;4757;59.334;18.034;2023-05-16T04:34:50;8.63;;;5.57;;
9436;SDS011;4757;59.334;18.034;2023-05-16T04:37:19;7.27;;;5.37;;
9436;SDS011;4757;59.334;18.034;2023-05-16T04:39:46;8.73;;;5.63;;
9436;SDS011;4757;59.334;18.034;2023-05-16T04:42:13;6.40;;;5.47;;
9436;SDS011;4757;59.334;18.034;2023-05-16T04:44:40;7.27;;;6.53;;
9436;SDS011;4757;59.334;18.034;2023-05-16T04:47:07;7.03;;;5.87;;
9436;SDS011;4757;59.334;18.034;2023-05-16T04:49:34;6.00;;;5.27;;
9436;SDS011;4757;59.334;18.034;2023-05-16T04:52:01;6.13;;;4.87;;
9436;SDS011;4757;59.334;18.034;2023-05-16T04:54:28;9.37;;;6.47;;
9436;SDS011;4757;59.334;18.034;2023-05-16T04:56:55;8.53;;;6.03;;
9436;SDS011;4757;59.334;18.034;2023-05-16T04:59:22;6.70;;;6.10;;
9436;SDS011;4757;59.334;18.034;2023-05-16T05:01:49;7.70;;;5.30;;
9436;SDS011;4757;59.334;18.034;2023-05-16T05:04:16;6.23;;;5.63;;
9436;SDS011;4757;59.334;18.034;2023-05-16T05:06:43;6.03;;;5.53;;
9436;SDS011;4757;59.334;18.034;2023-05-16T05:09:10;6.50;;;4.80;;
9436;SDS011;4757;59.334;18.034;2023-05-16T05:11:37;6.87;;;6.27;;
9436;SDS011;4757;59.334;18.034;2023-05-16T05:14:04;7.80;;;7.03;;
9436;SDS011;4757;59.334;18.034;2023-05-16T05:16:31;9.37;;;6.30;;
9436;SDS011;4757;59.334;18.034;2023-05-16T05:18:58;9.03;;;6.23;;
9436;SDS011;4757;59.334;18.034;2023-05-16T05:21:25;6.97;;;6.07;;
9436;SDS011;4757;59.334;18.034;2023-05-16T05:23:52;5.97;;;5.43;;
9436;SDS011;4757;59.334;18.034;2023-05-16T05:26:19;8.40;;;6.40;;
9436;SDS011;4757;59.334;18.034;2023-05-16T05:28:47;7.90;;;6.53;;
9436;SDS011;4757;59.334;18.034;2023-05-16T05:31:29;6.50;;;6.00;;
9436;SDS011;4757;59.334;18.034;2023-05-16T05:33:56;7.13;;;6.43;;
9436;SDS011;4757;59.334;18.034;2023-05-16T05:36:23;7.47;;;6.77;;
9436;SDS011;4757;59.334;18.034;2023-05-16T05:38:50;8.47;;;6.90;;
9436;SDS011;4757;59.334;18.034;2023-05-16T05:41:17;9.70;;;7.23;;
9436;SDS011;4757;59.334;18.034;2023-05-16T05:43:44;7.70;;;6.43;;
9436;SDS011;4757;59.334;18.034;2023-05-16T05:46:11;7.00;;;6.40;;
9436;SDS011;4757;59.334;18.034;2023-05-16T05:48:38;8.77;;;6.13;;
9436;SDS011;4757;59.334;18.034;2023-05-16T05:51:05;8.27;;;7.00;;
9436;SDS011;4757;59.334;18.034;2023-05-16T05:53:32;8.90;;;8.03;;
9436;SDS011;4757;59.334;18.034;2023-05-16T05:55:59;7.60;;;6.87;;
9436;SDS011;4757;59.334;18.034;2023-05-16T05:58:26;9.17;;;8.13;;
9436;SDS011;4757;59.334;18.034;2023-05-16T06:00:53;7.33;;;6.60;;
9436;SDS011;4757;59.334;18.034;2023-05-16T06:03:20;7.97;;;6.40;;
9436;SDS011;4757;59.334;18.034;2023-05-16T06:05:47;7.83;;;6.90;;
9436;SDS011;4757;59.334;18.034;2023-05-16T06:08:14;7.50;;;6.77;;
9436;SDS011;4757;59.334;18.034;2023-05-16T06:10:41;7.73;;;6.80;;
9436;SDS011;4757;59.334;18.034;2023-05-16T06:13:08;10.47;;;8.37;;
9436;SDS011;4757;59.334;18.034;2023-05-16T06:15:35;8.80;;;7.07;;
9436;SDS011;4757;59.334;18.034;2023-05-16T06:18:02;9.73;;;7.73;;
9436;SDS011;4757;59.334;18.034;2023-05-16T06:20:30;8.10;;;7.13;;
9436;SDS011;4757;59.334;18.034;2023-05-16T06:22:57;7.80;;;7.10;;
9436;SDS011;4757;59.334;18.034;2023-05-16T06:25:24;7.87;;;6.47;;
9436;SDS011;4757;59.334;18.034;2023-05-16T06:27:51;8.00;;;6.67;;
9436;SDS011;4757;59.334;18.034;2023-05-16T06:30:18;6.77;;;6.03;;
9436;SDS011;4757;59.334;18.034;2023-05-16T06:32:45;11.10;;;6.70;;
9436;SDS011;4757;59.334;18.034;2023-05-16T06:35:12;8.17;;;7.47;;
9436;SDS011;4757;59.334;18.034;2023-05-16T06:37:39;8.97;;;6.23;;
9436;SDS011;4757;59.334;18.034;2023-05-16T06:40:08;7.90;;;6.30;;
9436;SDS011;4757;59.334;18.034;2023-05-16T06:42:37;7.23;;;6.30;;
9436;SDS011;4757;59.334;18.034;2023-05-16T06:45:06;8.73;;;5.83;;
9436;SDS011;4757;59.334;18.034;2023-05-16T06:47:34;6.70;;;6.10;;
9436;SDS011;4757;59.334;18.034;2023-05-16T06:50:01;9.70;;;6.50;;
9436;SDS011;4757;59.334;18.034;2023-05-16T06:52:29;8.77;;;6.47;;
9436;SDS011;4757;59.334;18.034;2023-05-16T06:54:56;10.50;;;6.37;;
9436;SDS011;4757;59.334;18.034;2023-05-16T06:57:23;7.63;;;6.27;;
9436;SDS011;4757;59.334;18.034;2023-05-16T06:59:50;7.03;;;6.33;;
9436;SDS011;4757;59.334;18.034;2023-05-16T07:02:17;7.83;;;6.60;;
9436;SDS011;4757;59.334;18.034;2023-05-16T07:04:44;8.67;;;6.90;;
9436;SDS011;4757;59.334;18.034;2023-05-16T07:07:11;7.67;;;6.87;;
9436;SDS011;4757;59.334;18.034;2023-05-16T07:09:38;7.43;;;6.70;;
9436;SDS011;4757;59.334;18.034;2023-05-16T07:12:05;7.60;;;6.50;;
9436;SDS011;4757;59.334;18.034;2023-05-16T07:14:33;7.83;;;6.10;;
9436;SDS011;4757;59.334;18.034;2023-05-16T07:17:00;10.10;;;7.70;;
9436;SDS011;4757;59.334;18.034;2023-05-16T07:19:27;8.47;;;7.67;;
9436;SDS011;4757;59.334;18.034;2023-05-16T07:21:54;9.77;;;8.27;;
9436;SDS011;4757;59.334;18.034;2023-05-16T07:24:21;8.20;;;7.50;;
9436;SDS011;4757;59.334;18.034;2023-05-16T07:26:48;9.40;;;7.83;;
9436;SDS011;4757;59.334;18.034;2023-05-16T07:29:15;11.57;;;8.27;;
9436;SDS011;4757;59.334;18.034;2023-05-16T07:31:43;7.37;;;6.60;;
9436;SDS011;4757;59.334;18.034;2023-05-16T07:34:10;7.07;;;6.37;;
9436;SDS011;4757;59.334;18.034;2023-05-16T07:36:37;7.67;;;6.97;;
9436;SDS011;4757;59.334;18.034;2023-05-16T07:39:04;10.17;;;6.57;;
9436;SDS011;4757;59.334;18.034;2023-05-16T07:41:31;7.37;;;6.63;;
9436;SDS011;4757;59.334;18.034;2023-05-16T07:43:58;8.20;;;7.40;;
9436;SDS011;4757;59.334;18.034;2023-05-16T07:46:25;7.83;;;7.00;;
9436;SDS011;4757;59.334;18.034;2023-05-16T07:48:52;7.73;;;7.03;;
9436;SDS011;4757;59.334;18.034;2023-05-16T07:51:19;7.93;;;7.23;;
9436;SDS011;4757;59.334;18.034;2023-05-16T07:53:46;8.30;;;6.87;;
9436;SDS011;4757;59.334;18.034;2023-05-16T07:56:13;10.17;;;7.23;;
9436;SDS011;4757;59.334;18.034;2023-05-16T07:58:40;9.57;;;8.73;;
9436;SDS011;4757;59.334;18.034;2023-05-16T08:01:07;7.83;;;7.20;;
9436;SDS011;4757;59.334;18.034;2023-05-16T08:03:34;8.23;;;7.53;;
9436;SDS011;4757;59.334;18.034;2023-05-16T08:06:08;7.10;;;6.50;;
9436;SDS011;4757;59.334;18.034;2023-05-16T08:08:36;7.33;;;6.63;;
9436;SDS011;4757;59.334;18.034;2023-05-16T08:11:03;7.23;;;6.53;;
9436;SDS011;4757;59.334;18.034;2023-05-16T08:13:31;6.40;;;5.80;;
9436;SDS011;4757;59.334;18.034;2023-05-16T08:15:58;6.80;;;6.20;;
9436;SDS011;4757;59.334;18.034;2023-05-16T08:18:25;6.93;;;6.20;;
9436;SDS011;4757;59.334;18.034;2023-05-16T08:20:55;6.43;;;5.83;;
9436;SDS011;4757;59.334;18.034;2023-05-16T08:23:23;6.57;;;4.93;;
9436;SDS011;4757;59.334;18.034;2023-05-16T08:26:01;6.93;;;4.97;;
9436;SDS011;4757;59.334;18.034;2023-05-16T08:28:28;5.10;;;4.60;;
9436;SDS011;4757;59.334;18.034;2023-05-16T08:30:56;5.37;;;4.87;;
9436;SDS011;4757;59.334;18.034;2023-05-16T08:33:23;5.43;;;4.87;;
9436;SDS011;4757;59.334;18.034;2023-05-16T08:35:50;5.10;;;4.77;;
9436;SDS011;4757;59.334;18.034;2023-05-16T08:38:32;6.00;;;5.50;;
9436;SDS011;4757;59.334;18.034;2023-05-16T08:40:59;5.90;;;5.43;;
9436;SDS011;4757;59.334;18.034;2023-05-16T08:43:26;5.70;;;5.20;;
9436;SDS011;4757;59.334;18.034;2023-05-16T08:45:53;4.87;;;4.53;;
9436;SDS011;4757;59.334;18.034;2023-05-16T08:48:22;5.67;;;5.17;;
9436;SDS011;4757;59.334;18.034;2023-05-16T08:50:49;5.03;;;4.57;;
9436;SDS011;4757;59.334;18.034;2023-05-16T08:53:20;4.70;;;4.30;;
9436;SDS011;4757;59.334;18.034;2023-05-16T08:55:48;8.67;;;6.63;;
9436;SDS011;4757;59.334;18.034;2023-05-16T08:58:16;5.90;;;5.40;;
9436;SDS011;4757;59.334;18.034;2023-05-16T09:00:45;6.03;;;5.53;;
9436;SDS011;4757;59.334;18.034;2023-05-16T09:03:13;6.60;;;4.73;;
9436;SDS011;4757;59.334;18.034;2023-05-16T09:05:40;5.27;;;4.87;;
9436;SDS011;4757;59.334;18.034;2023-05-16T09:08:08;8.10;;;7.17;;
9436;SDS011;4757;59.334;18.034;2023-05-16T09:10:35;6.40;;;5.80;;
9436;SDS011;4757;59.334;18.034;2023-05-16T09:13:01;5.50;;;5.10;;
9436;SDS011;4757;59.334;18.034;2023-05-16T09:15:30;5.30;;;4.80;;
9436;SDS011;4757;59.334;18.034;2023-05-16T09:18:01;6.00;;;5.40;;
9436;SDS011;4757;59.334;18.034;2023-05-16T09:20:30;8.23;;;6.00;;
9436;SDS011;4757;59.334;18.034;2023-05-16T09:22:58;5.20;;;4.43;;
9436;SDS011;4757;59.334;18.034;2023-05-16T09:25:26;6.27;;;5.23;;
9436;SDS011;4757;59.334;18.034;2023-05-16T09:27:58;6.87;;;5.10;;
9436;SDS011;4757;59.334;18.034;2023-05-16T09:30:28;7.13;;;5.50;;
9436;SDS011;4757;59.334;18.034;2023-05-16T09:33:02;5.70;;;5.20;;
9436;SDS011;4757;59.334;18.034;2023-05-16T09:35:32;5.70;;;5.10;;
9436;SDS011;4757;59.334;18.034;2023-05-16T09:38:14;5.27;;;4.77;;
9436;SDS011;4757;59.334;18.034;2023-05-16T09:40:42;4.47;;;3.53;;
9436;SDS011;4757;59.334;18.034;2023-05-16T09:43:11;4.00;;;3.47;;
9436;SDS011;4757;59.334;18.034;2023-05-16T09:45:46;4.47;;;4.07;;
9436;SDS011;4757;59.334;18.034;2023-05-16T09:48:14;6.57;;;4.50;;
9436;SDS011;4757;59.334;18.034;2023-05-16T09:50:45;4.63;;;4.30;;
9436;SDS011;4757;59.334;18.034;2023-05-16T09:53:26;6.87;;;4.77;;
9436;SDS011;4757;59.334;18.034;2023-05-16T09:56:13;7.30;;;4.37;;
9436;SDS011;4757;59.334;18.034;2023-05-16T09:58:41;3.60;;;3.30;;
9436;SDS011;4757;59.334;18.034;2023-05-16T10:01:10;4.03;;;3.33;;
9436;SDS011;4757;59.334;18.034;2023-05-16T10:03:38;9.23;;;3.97;;
9436;SDS011;4757;59.334;18.034;2023-05-16T10:06:07;4.37;;;4.07;;
9436;SDS011;4757;59.334;18.034;2023-05-16T10:08:35;4.40;;;4.00;;
9436;SDS011;4757;59.334;18.034;2023-05-16T10:11:03;4.80;;;3.87;;
9436;SDS011;4757;59.334;18.034;2023-05-16T10:13:32;4.40;;;3.63;;
9436;SDS011;4757;59.334;18.034;2023-05-16T10:16:05;3.87;;;3.57;;
9436;SDS011;4757;59.334;18.034;2023-05-16T10:18:34;3.83;;;3.47;;
9436;SDS011;4757;59.334;18.034;2023-05-16T10:21:04;4.60;;;3.80;;
9436;SDS011;4757;59.334;18.034;2023-05-16T10:23:35;3.33;;;3.03;;
9436;SDS011;4757;59.334;18.034;2023-05-16T10:26:06;2.77;;;2.57;;
9436;SDS011;4757;59.334;18.034;2023-05-16T10:28:34;2.67;;;2.57;;
9436;SDS011;4757;59.334;18.034;2023-05-16T10:31:02;2.70;;;2.50;;
9436;SDS011;4757;59.334;18.034;2023-05-16T10:33:30;2.70;;;2.50;;
9436;SDS011;4757;59.334;18.034;2023-05-16T10:35:57;2.83;;;2.50;;
9436;SDS011;4757;59.334;18.034;2023-05-16T10:38:24;3.37;;;2.60;;
9436;SDS011;4757;59.334;18.034;2023-05-16T10:40:53;2.50;;;2.37;;
9436;SDS011;4757;59.334;18.034;2023-05-16T10:43:22;2.97;;;2.77;;
9436;SDS011;4757;59.334;18.034;2023-05-16T10:46:01;2.30;;;2.20;;
9436;SDS011;4757;59.334;18.034;2023-05-16T10:48:36;2.70;;;2.47;;
9436;SDS011;4757;59.334;18.034;2023-05-16T10:54:08;2.57;;;2.40;;
9436;SDS011;4757;59.334;18.034;2023-05-16T10:56:38;2.20;;;2.10;;
9436;SDS011;4757;59.334;18.034;2023-05-16T10:59:27;2.43;;;2.23;;
9436;SDS011;4757;59.334;18.034;2023-05-16T11:01:54;3.00;;;2.70;;
9436;SDS011;4757;59.334;18.034;2023-05-16T11:04:22;2.77;;;2.33;;
9436;SDS011;4757;59.334;18.034;2023-05-16T11:06:50;3.00;;;2.80;;
9436;SDS011;4757;59.334;18.034;2023-05-16T11:09:22;2.90;;;2.70;;
9436;SDS011;4757;59.334;18.034;2023-05-16T11:12:01;2.90;;;2.70;;
9436;SDS011;4757;59.334;18.034;2023-05-16T11:19:30;3.67;;;3.27;;
9436;SDS011;4757;59.334;18.034;2023-05-16T11:22:05;4.57;;;3.33;;
9436;SDS011;4757;59.334;18.034;2023-05-16T11:24:37;3.87;;;3.50;;
9436;SDS011;4757;59.334;18.034;2023-05-16T11:27:05;6.10;;;3.27;;
9436;SDS011;4757;59.334;18.034;2023-05-16T11:29:33;3.03;;;2.77;;
9436;SDS011;4757;59.334;18.034;2023-05-16T11:32:02;4.30;;;3.40;;
9436;SDS011;4757;59.334;18.034;2023-05-16T11:34:31;3.90;;;3.27;;
9436;SDS011;4757;59.334;18.034;2023-05-16T11:37:01;3.57;;;3.27;;
9436;SDS011;4757;59.334;18.034;2023-05-16T11:39:29;3.80;;;3.40;;
9436;SDS011;4757;59.334;18.034;2023-05-16T11:41:57;4.10;;;3.67;;
9436;SDS011;4757;59.334;18.034;2023-05-16T11:44:24;5.23;;;3.63;;
9436;SDS011;4757;59.334;18.034;2023-05-16T11:46:51;4.53;;;3.80;;
9436;SDS011;4757;59.334;18.034;2023-05-16T11:49:18;5.30;;;4.40;;
9436;SDS011;4757;59.334;18.034;2023-05-16T11:51:46;4.13;;;3.73;;
9436;SDS011;4757;59.334;18.034;2023-05-16T11:54:13;4.17;;;3.87;;
9436;SDS011;4757;59.334;18.034;2023-05-16T11:56:41;4.40;;;4.10;;
9436;SDS011;4757;59.334;18.034;2023-05-16T11:59:09;5.17;;;3.67;;
9436;SDS011;4757;59.334;18.034;2023-05-16T12:01:37;4.53;;;4.10;;
9436;SDS011;4757;59.334;18.034;2023-05-16T12:06:37;6.67;;;4.50;;
9436;SDS011;4757;59.334;18.034;2023-05-16T12:09:05;4.40;;;3.60;;
9436;SDS011;4757;59.334;18.034;2023-05-16T12:11:37;4.00;;;3.70;;
9436;SDS011;4757;59.334;18.034;2023-05-16T12:14:05;6.30;;;4.23;;
9436;SDS011;4757;59.334;18.034;2023-05-16T12:16:33;3.90;;;3.60;;
9436;SDS011;4757;59.334;18.034;2023-05-16T12:19:05;4.10;;;3.80;;
9436;SDS011;4757;59.334;18.034;2023-05-16T12:21:32;4.33;;;3.93;;
9436;SDS011;4757;59.334;18.034;2023-05-16T12:24:00;4.73;;;3.83;;
9436;SDS011;4757;59.334;18.034;2023-05-16T12:26:28;3.93;;;3.63;;
9436;SDS011;4757;59.334;18.034;2023-05-16T12:28:57;9.60;;;4.53;;
9436;SDS011;4757;59.334;18.034;2023-05-16T12:31:28;4.23;;;3.80;;
9436;SDS011;4757;59.334;18.034;2023-05-16T12:33:58;9.43;;;4.63;;
9436;SDS011;4757;59.334;18.034;2023-05-16T12:36:25;4.43;;;3.50;;
9436;SDS011;4757;59.334;18.034;2023-05-16T12:38:59;4.53;;;4.13;;
9436;SDS011;4757;59.334;18.034;2023-05-16T12:41:29;6.23;;;4.50;;
9436;SDS011;4757;59.334;18.034;2023-05-16T12:44:09;7.07;;;4.37;;
9436;SDS011;4757;59.334;18.034;2023-05-16T12:46:51;4.13;;;3.83;;
9436;SDS011;4757;59.334;18.034;2023-05-16T12:49:20;4.70;;;4.30;;
9436;SDS011;4757;59.334;18.034;2023-05-16T12:51:51;6.83;;;5.07;;
9436;SDS011;4757;59.334;18.034;2023-05-16T12:54:23;5.67;;;5.17;;
9436;SDS011;4757;59.334;18.034;2023-05-16T12:56:50;5.73;;;4.17;;
9436;SDS011;4757;59.334;18.034;2023-05-16T12:59:17;6.43;;;4.90;;
9436;SDS011;4757;59.334;18.034;2023-05-16T13:01:45;13.37;;;4.87;;
9436;SDS011;4757;59.334;18.034;2023-05-16T13:04:12;10.03;;;5.00;;
9436;SDS011;4757;59.334;18.034;2023-05-16T13:06:45;8.03;;;5.47;;
9436;SDS011;4757;59.334;18.034;2023-05-16T13:09:25;10.20;;;5.30;;
9436;SDS011;4757;59.334;18.034;2023-05-16T13:11:56;16.47;;;6.17;;
9436;SDS011;4757;59.334;18.034;2023-05-16T13:14:23;9.50;;;5.57;;
9436;SDS011;4757;59.334;18.034;2023-05-16T13:16:59;12.73;;;5.20;;
9436;SDS011;4757;59.334;18.034;2023-05-16T13:19:26;6.47;;;4.27;;
9436;SDS011;4757;59.334;18.034;2023-05-16T13:21:53;14.43;;;6.50;;
9436;SDS011;4757;59.334;18.034;2023-05-16T13:24:20;7.43;;;4.50;;
9436;SDS011;4757;59.334;18.034;2023-05-16T13:26:47;5.23;;;4.53;;
9436;SDS011;4757;59.334;18.034;2023-05-16T13:29:14;6.90;;;4.67;;
9436;SDS011;4757;59.334;18.034;2023-05-16T13:31:41;8.27;;;5.37;;
9436;SDS011;4757;59.334;18.034;2023-05-16T13:34:08;9.73;;;5.17;;
9436;SDS011;4757;59.334;18.034;2023-05-16T13:36:35;5.90;;;4.30;;
9436;SDS011;4757;59.334;18.034;2023-05-16T13:39:19;5.70;;;4.27;;
9436;SDS011;4757;59.334;18.034;2023-05-16T13:41:50;8.83;;;5.00;;
9436;SDS011;4757;59.334;18.034;2023-05-16T13:44:17;6.80;;;4.03;;
9436;SDS011;4757;59.334;18.034;2023-05-16T13:46:44;4.33;;;4.03;;
9436;SDS011;4757;59.334;18.034;2023-05-16T13:49:12;6.03;;;5.50;;
9436;SDS011;4757;59.334;18.034;2023-05-16T13:51:39;9.20;;;5.33;;
9436;SDS011;4757;59.334;18.034;2023-05-16T13:54:06;13.53;;;10.43;;
9436;SDS011;4757;59.334;18.034;2023-05-16T13:56:33;7.37;;;4.60;;
9436;SDS011;4757;59.334;18.034;2023-05-16T13:59:01;6.53;;;5.27;;
9436;SDS011;4757;59.334;18.034;2023-05-16T14:01:32;8.37;;;4.83;;
9436;SDS011;4757;59.334;18.034;2023-05-16T14:03:59;13.43;;;5.97;;
9436;SDS011;4757;59.334;18.034;2023-05-16T14:06:30;11.07;;;6.47;;
9436;SDS011;4757;59.334;18.034;2023-05-16T14:08:57;10.93;;;5.37;;
9436;SDS011;4757;59.334;18.034;2023-05-16T14:11:24;13.03;;;6.50;;
9436;SDS011;4757;59.334;18.034;2023-05-16T14:13:55;9.00;;;5.97;;
9436;SDS011;4757;59.334;18.034;2023-05-16T14:16:22;10.43;;;5.87;;
9436;SDS011;4757;59.334;18.034;2023-05-16T14:18:50;6.27;;;5.67;;
9436;SDS011;4757;59.334;18.034;2023-05-16T14:21:17;20.77;;;7.70;;
9436;SDS011;4757;59.334;18.034;2023-05-16T14:23:44;13.13;;;6.50;;
9436;SDS011;4757;59.334;18.034;2023-05-16T14:26:12;11.70;;;6.63;;
9436;SDS011;4757;59.334;18.034;2023-05-16T14:28:39;19.00;;;7.30;;
9436;SDS011;4757;59.334;18.034;2023-05-16T14:31:06;8.77;;;7.00;;
9436;SDS011;4757;59.334;18.034;2023-05-16T14:33:33;11.23;;;10.03;;
9436;SDS011;4757;59.334;18.034;2023-05-16T14:36:00;8.50;;;7.23;;
9436;SDS011;4757;59.334;18.034;2023-05-16T14:38:27;7.67;;;6.23;;
9436;SDS011;4757;59.334;18.034;2023-05-16T14:40:54;9.10;;;7.27;;
9436;SDS011;4757;59.334;18.034;2023-05-16T14:43:21;8.47;;;6.80;;
9436;SDS011;4757;59.334;18.034;2023-05-16T14:45:48;8.23;;;7.43;;
9436;SDS011;4757;59.334;18.034;2023-05-16T14:48:15;14.77;;;13.20;;
9436;SDS011;4757;59.334;18.034;2023-05-16T14:50:42;8.47;;;6.60;;
9436;SDS011;4757;59.334;18.034;2023-05-16T14:53:09;7.40;;;6.70;;
9436;SDS011;4757;59.334;18.034;2023-05-16T14:55:36;14.97;;;8.50;;
9436;SDS011;4757;59.334;18.034;2023-05-16T14:58:04;11.23;;;6.73;;
9436;SDS011;4757;59.334;18.034;2023-05-16T15:00:31;12.23;;;6.37;;
9436;SDS011;4757;59.334;18.034;2023-05-16T15:02:58;10.27;;;6.87;;
9436;SDS011;4757;59.334;18.034;2023-05-16T15:05:25;6.83;;;5.90;;
9436;SDS011;4757;59.334;18.034;2023-05-16T15:07:54;13.63;;;6.17;;
9436;SDS011;4757;59.334;18.034;2023-05-16T15:10:21;7.53;;;6.00;;
9436;SDS011;4757;59.334;18.034;2023-05-16T15:12:49;11.80;;;6.00;;
9436;SDS011;4757;59.334;18.034;2023-05-16T15:15:16;6.67;;;5.37;;
9436;SDS011;4757;59.334;18.034;2023-05-16T15:17:43;10.90;;;7.07;;
9436;SDS011;4757;59.334;18.034;2023-05-16T15:20:10;7.13;;;6.33;;
9436;SDS011;4757;59.334;18.034;2023-05-16T15:22:38;7.67;;;6.10;;
9436;SDS011;4757;59.334;18.034;2023-05-16T15:25:06;6.70;;;6.00;;
9436;SDS011;4757;59.334;18.034;2023-05-16T15:27:34;7.90;;;6.70;;
9436;SDS011;4757;59.334;18.034;2023-05-16T15:30:01;8.87;;;6.40;;
9436;SDS011;4757;59.334;18.034;2023-05-16T15:32:29;7.00;;;6.30;;